createdAt,value
2022-09-04T00:00:56.674Z,24.90
2022-09-04T00:03:31.929Z,24.90
2022-09-04T00:06:02.271Z,24.90
2022-09-04T00:08:55.278Z,24.90
2022-09-04T00:11:31.156Z,24.90
2022-09-04T00:14:00.947Z,24.90
2022-09-04T00:16:35.541Z,24.90
2022-09-04T00:19:07.118Z,24.90
2022-09-04T00:21:37.719Z,24.90
2022-09-04T00:24:06.794Z,24.90
2022-09-04T00:26:41.781Z,24.90
2022-09-04T00:29:13.783Z,24.90
2022-09-04T00:31:47.189Z,24.90
2022-09-04T00:34:20.574Z,24.90
2022-09-04T00:36:51.763Z,24.90
2022-09-04T00:39:22.333Z,24.90
2022-09-04T00:41:59.423Z,24.90
2022-09-04T00:44:51.160Z,24.90
2022-09-04T00:47:44.721Z,24.90
2022-09-04T00:50:19.553Z,24.80
2022-09-04T00:53:00.570Z,24.80
2022-09-04T00:55:41.957Z,24.80
2022-09-04T00:58:21.626Z,24.90
2022-09-04T01:00:49.998Z,24.90
2022-09-04T01:03:36.230Z,24.90
2022-09-04T01:06:21.895Z,24.80
2022-09-04T01:09:06.263Z,24.80
2022-09-04T01:11:38.965Z,24.80
2022-09-04T01:14:13.389Z,24.90
2022-09-04T01:16:46.388Z,24.80
2022-09-04T01:19:30.523Z,24.80
2022-09-04T01:22:05.567Z,24.80
2022-09-04T01:25:05.767Z,24.80
2022-09-04T01:27:38.088Z,24.80
2022-09-04T01:30:08.412Z,24.80
2022-09-04T01:32:43.859Z,24.80
2022-09-04T01:35:18.367Z,24.80
2022-09-04T01:37:53.276Z,24.80
2022-09-04T01:40:35.174Z,24.80
2022-09-04T01:43:08.413Z,24.80
2022-09-04T01:45:48.626Z,24.80
2022-09-04T01:48:18.933Z,24.80
2022-09-04T01:50:48.906Z,24.80
2022-09-04T01:53:19.945Z,24.80
2022-09-04T01:55:51.916Z,24.80
2022-09-04T01:58:25.506Z,24.80
2022-09-04T02:00:57.872Z,24.80
2022-09-04T02:03:27.806Z,24.80
2022-09-04T02:06:02.823Z,24.80
2022-09-04T02:08:39.213Z,24.80
2022-09-04T02:11:13.120Z,24.70
2022-09-04T02:13:53.672Z,24.70
2022-09-04T02:16:24.038Z,24.70
2022-09-04T02:18:55.560Z,24.70
2022-09-04T02:21:27.258Z,24.70
2022-09-04T02:24:02.447Z,24.70
2022-09-04T02:26:31.853Z,24.70
2022-09-04T02:29:03.666Z,24.70
2022-09-04T02:31:38.812Z,24.70
2022-09-04T02:34:09.466Z,24.70
2022-09-04T02:36:42.470Z,24.70
2022-09-04T02:39:17.570Z,24.70
2022-09-04T02:41:51.286Z,24.70
2022-09-04T02:44:30.368Z,24.70
2022-09-04T02:47:03.269Z,24.70
2022-09-04T02:49:36.859Z,24.70
2022-09-04T02:52:13.874Z,24.70
2022-09-04T02:54:52.415Z,24.70
2022-09-04T02:57:28.067Z,24.70
2022-09-04T03:00:04.662Z,24.70
2022-09-04T03:02:34.859Z,24.70
2022-09-04T03:05:05.958Z,24.70
2022-09-04T03:07:34.973Z,24.70
2022-09-04T03:10:08.321Z,24.70
2022-09-04T03:12:38.563Z,24.70
2022-09-04T03:15:14.094Z,24.70
2022-09-04T03:17:47.572Z,24.70
2022-09-04T03:20:17.845Z,24.70
2022-09-04T03:22:48.693Z,24.70
2022-09-04T03:25:45.093Z,24.70
2022-09-04T03:28:16.683Z,24.70
2022-09-04T03:30:46.557Z,24.70
2022-09-04T03:33:16.455Z,24.70
2022-09-04T03:35:50.567Z,24.70
2022-09-04T03:38:20.396Z,24.70
2022-09-04T03:40:52.443Z,24.60
2022-09-04T03:43:31.682Z,24.70
2022-09-04T03:46:05.394Z,24.70
2022-09-04T03:48:45.482Z,24.70
2022-09-04T03:51:18.845Z,24.70
2022-09-04T03:53:50.771Z,24.70
2022-09-04T03:56:32.592Z,24.70
2022-09-04T03:59:04.786Z,24.70
2022-09-04T04:01:42.018Z,24.60
2022-09-04T04:04:45.210Z,24.70
2022-09-04T04:07:19.791Z,24.60
2022-09-04T04:09:55.830Z,24.70
2022-09-04T04:12:49.922Z,24.60
2022-09-04T04:15:27.632Z,24.60
2022-09-04T04:18:05.420Z,24.60
2022-09-04T04:20:38.070Z,24.70
2022-09-04T04:23:59.806Z,24.60
2022-09-04T04:26:39.302Z,24.60
2022-09-04T04:29:40.644Z,24.60
2022-09-04T04:32:21.384Z,24.60
2022-09-04T04:35:02.084Z,24.60
2022-09-04T04:37:35.451Z,24.60
2022-09-04T04:40:05.545Z,24.60
2022-09-04T04:42:36.500Z,24.60
2022-09-04T04:45:30.415Z,24.60
2022-09-04T04:48:31.775Z,24.60
2022-09-04T04:51:07.490Z,24.60
2022-09-04T04:53:39.739Z,24.60
2022-09-04T04:56:14.116Z,24.60
2022-09-04T04:58:49.590Z,24.60
2022-09-04T05:01:25.671Z,24.60
2022-09-04T05:04:02.459Z,24.60
2022-09-04T05:06:36.305Z,24.60
2022-09-04T05:09:10.582Z,24.60
2022-09-04T05:11:41.084Z,24.60
2022-09-04T05:14:17.534Z,24.60
2022-09-04T05:16:53.455Z,24.60
2022-09-04T05:19:27.853Z,24.60
2022-09-04T05:22:01.253Z,24.60
2022-09-04T05:24:32.987Z,24.60
2022-09-04T05:27:04.038Z,24.60
2022-09-04T05:29:35.291Z,24.60
2022-09-04T05:32:14.733Z,24.60
2022-09-04T05:35:01.873Z,24.60
2022-09-04T05:37:35.986Z,24.60
2022-09-04T05:40:09.618Z,24.60
2022-09-04T05:42:42.737Z,24.60
2022-09-04T05:45:15.265Z,24.60
2022-09-04T05:47:47.134Z,24.60
2022-09-04T05:50:37.143Z,24.60
2022-09-04T05:53:47.099Z,24.60
2022-09-04T05:56:30.904Z,24.60
2022-09-04T05:59:06.402Z,24.60
2022-09-04T06:01:53.568Z,24.60
2022-09-04T06:04:43.879Z,24.60
2022-09-04T06:07:13.796Z,24.70
2022-09-04T06:09:50.946Z,24.70
2022-09-04T06:12:30.006Z,24.70
2022-09-04T06:15:12.508Z,24.70
2022-09-04T06:17:52.536Z,24.80
2022-09-04T06:20:29.107Z,24.80
2022-09-04T06:23:17.946Z,24.80
2022-09-04T06:26:07.379Z,24.80
2022-09-04T06:28:56.568Z,24.80
2022-09-04T06:32:04.284Z,24.80
2022-09-04T06:34:51.267Z,24.80
2022-09-04T06:37:23.026Z,24.90
2022-09-04T06:39:57.304Z,24.80
2022-09-04T06:42:35.070Z,24.90
2022-09-04T06:45:15.853Z,24.90
2022-09-04T06:47:55.572Z,24.90
2022-09-04T06:50:25.697Z,24.90
2022-09-04T06:53:04.875Z,24.90
2022-09-04T06:55:34.916Z,24.90
2022-09-04T06:58:20.215Z,24.90
2022-09-04T07:00:53.418Z,25.00
2022-09-04T07:03:28.244Z,25.00
2022-09-04T07:05:59.963Z,25.00
2022-09-04T07:08:35.251Z,25.00
2022-09-04T07:11:09.281Z,25.00
2022-09-04T07:13:45.078Z,25.00
2022-09-04T07:16:35.131Z,25.00
2022-09-04T07:19:26.386Z,25.10
2022-09-04T07:22:01.211Z,25.10
2022-09-04T07:24:41.152Z,25.10
2022-09-04T07:27:15.602Z,25.10
2022-09-04T07:29:48.411Z,25.10
2022-09-04T07:32:21.656Z,25.10
2022-09-04T07:34:53.759Z,25.10
2022-09-04T07:37:27.774Z,25.10
2022-09-04T07:40:01.411Z,25.10
2022-09-04T07:42:31.247Z,25.20
2022-09-04T07:45:02.863Z,25.20
2022-09-04T07:47:44.670Z,25.20
2022-09-04T07:50:18.193Z,25.20
2022-09-04T07:52:56.929Z,25.20
2022-09-04T07:55:33.279Z,25.20
2022-09-04T07:58:35.864Z,25.20
2022-09-04T08:01:25.114Z,25.20
2022-09-04T08:04:05.390Z,25.30
2022-09-04T08:06:39.463Z,25.40
2022-09-04T08:09:33.847Z,25.30
2022-09-04T08:12:42.603Z,25.40
2022-09-04T08:15:16.320Z,25.40
2022-09-04T08:18:01.499Z,25.50
2022-09-04T08:20:53.099Z,25.50
2022-09-04T08:24:01.257Z,25.50
2022-09-04T08:26:31.850Z,25.50
2022-09-04T08:29:12.492Z,25.50
2022-09-04T08:31:42.874Z,25.50
2022-09-04T08:34:28.525Z,25.50
2022-09-04T08:37:00.810Z,25.40
2022-09-04T08:39:32.696Z,25.40
2022-09-04T08:42:31.382Z,25.40
2022-09-04T08:45:42.441Z,25.30
2022-09-04T08:48:42.941Z,25.40
2022-09-04T08:51:23.694Z,25.50
2022-09-04T08:54:21.313Z,25.50
2022-09-04T08:56:55.023Z,25.50
2022-09-04T08:59:45.822Z,25.60
2022-09-04T09:02:43.919Z,25.60
2022-09-04T09:05:49.694Z,25.60
2022-09-04T09:08:55.024Z,25.60
2022-09-04T09:11:55.849Z,25.60
2022-09-04T09:14:38.176Z,25.60
2022-09-04T09:17:12.727Z,25.60
2022-09-04T09:19:47.822Z,25.70
2022-09-04T09:22:37.066Z,25.70
2022-09-04T09:25:20.548Z,25.70
2022-09-04T09:28:21.351Z,25.70
2022-09-04T09:31:17.242Z,25.70
2022-09-04T09:34:21.014Z,25.80
2022-09-04T09:37:07.053Z,25.80
2022-09-04T09:40:06.938Z,25.90
2022-09-04T09:42:55.399Z,25.80
2022-09-04T09:45:36.828Z,25.90
2022-09-04T09:48:32.659Z,25.90
2022-09-04T09:51:24.788Z,25.90
2022-09-04T09:54:29.090Z,25.90
2022-09-04T09:57:37.142Z,25.90
2022-09-04T10:00:09.473Z,25.90
2022-09-04T10:03:01.276Z,25.90
2022-09-04T10:05:51.617Z,25.90
2022-09-04T10:08:49.018Z,26.00
2022-09-04T10:11:42.377Z,26.00
2022-09-04T10:14:43.732Z,26.00
2022-09-04T10:17:22.818Z,26.00
2022-09-04T10:20:27.668Z,26.00
2022-09-04T10:23:20.788Z,26.10
2022-09-04T10:26:17.938Z,26.10
2022-09-04T10:28:59.492Z,26.00
2022-09-04T10:32:06.370Z,26.10
2022-09-04T10:35:07.470Z,26.10
2022-09-04T10:37:54.696Z,26.10
2022-09-04T10:40:43.299Z,26.10
2022-09-04T10:43:23.770Z,26.10
2022-09-04T10:45:58.884Z,26.10
2022-09-04T10:48:57.549Z,26.10
2022-09-04T10:51:36.419Z,26.00
2022-09-04T10:54:40.121Z,26.00
2022-09-04T10:57:20.271Z,26.00
2022-09-04T10:59:59.158Z,26.00
2022-09-04T11:02:53.212Z,26.00
2022-09-04T11:05:36.383Z,26.00
2022-09-04T11:08:26.391Z,26.00
2022-09-04T11:11:34.871Z,26.00
2022-09-04T11:14:13.665Z,26.10
2022-09-04T11:17:14.387Z,26.10
2022-09-04T11:20:03.545Z,26.20
2022-09-04T11:23:05.056Z,26.20
2022-09-04T11:26:13.893Z,26.10
2022-09-04T11:28:51.268Z,26.10
2022-09-04T11:31:53.603Z,26.10
2022-09-04T11:35:05.548Z,26.00
2022-09-04T11:38:04.607Z,26.00
2022-09-04T11:41:24.440Z,26.00
2022-09-04T11:44:12.502Z,26.00
2022-09-04T11:47:18.566Z,26.00
2022-09-04T11:49:58.979Z,26.00
2022-09-04T11:52:36.331Z,26.00
2022-09-04T11:55:34.754Z,26.10
2022-09-04T11:58:30.230Z,26.00
2022-09-04T12:01:08.516Z,26.00
2022-09-04T12:03:51.662Z,26.10
2022-09-04T12:06:34.967Z,26.20
2022-09-04T12:09:11.844Z,26.30
2022-09-04T12:12:14.239Z,26.40
2022-09-04T12:15:07.682Z,26.40
2022-09-04T12:18:08.803Z,26.40
2022-09-04T12:21:00.962Z,26.50
2022-09-04T12:23:41.491Z,26.60
2022-09-04T12:26:34.687Z,26.60
2022-09-04T12:29:28.422Z,26.60
2022-09-04T12:32:30.385Z,26.60
2022-09-04T12:35:41.128Z,26.70
2022-09-04T12:38:26.539Z,26.80
2022-09-04T12:41:01.416Z,26.80
2022-09-04T12:43:41.691Z,26.80
2022-09-04T12:46:24.055Z,26.80
2022-09-04T12:49:03.000Z,26.80
2022-09-04T12:51:37.306Z,26.80
2022-09-04T12:54:27.468Z,26.80
2022-09-04T12:57:00.802Z,26.70
2022-09-04T12:59:41.670Z,26.80
2022-09-04T13:02:14.004Z,26.80
2022-09-04T13:04:49.358Z,26.90
2022-09-04T13:07:27.229Z,27.10
2022-09-04T13:09:59.791Z,27.10
2022-09-04T13:12:32.722Z,27.10
2022-09-04T13:15:09.642Z,27.10
2022-09-04T13:17:43.611Z,27.10
2022-09-04T13:20:18.954Z,27.20
2022-09-04T13:22:57.791Z,27.30
2022-09-04T13:25:29.853Z,27.50
2022-09-04T13:28:04.043Z,27.70
2022-09-04T13:30:34.310Z,27.80
2022-09-04T13:33:18.603Z,27.90
2022-09-04T13:35:59.147Z,27.90
2022-09-04T13:39:17.947Z,27.80
2022-09-04T13:42:05.280Z,27.50
2022-09-04T13:44:47.406Z,27.30
2022-09-04T13:47:16.971Z,27.30
2022-09-04T13:49:48.032Z,27.30
2022-09-04T13:52:19.371Z,27.70
2022-09-04T13:54:52.565Z,27.70
2022-09-04T13:57:24.066Z,27.50
2022-09-04T13:59:54.998Z,27.30
2022-09-04T14:02:24.492Z,27.20
2022-09-04T14:04:53.861Z,27.30
2022-09-04T14:07:24.893Z,27.30
2022-09-04T14:09:54.335Z,27.20
2022-09-04T14:13:05.471Z,27.10
2022-09-04T14:15:46.073Z,27.00
2022-09-04T14:18:26.782Z,27.00
2022-09-04T14:21:01.321Z,27.00
2022-09-04T14:23:42.664Z,27.10
2022-09-04T14:26:15.155Z,27.30
2022-09-04T14:28:46.908Z,27.50
2022-09-04T14:31:18.774Z,27.70
2022-09-04T14:33:53.429Z,27.90
2022-09-04T14:36:26.134Z,28.10
2022-09-04T14:39:06.640Z,27.90
2022-09-04T14:41:42.901Z,27.70
2022-09-04T14:44:18.435Z,27.60
2022-09-04T14:46:55.701Z,27.60
2022-09-04T14:49:24.691Z,27.60
2022-09-04T14:51:56.475Z,27.60
2022-09-04T14:54:27.824Z,27.60
2022-09-04T14:56:57.375Z,27.60
2022-09-04T14:59:27.714Z,27.60
2022-09-04T15:02:07.718Z,27.60
2022-09-04T15:04:39.802Z,27.70
2022-09-04T15:07:25.958Z,27.50
2022-09-04T15:09:58.048Z,27.30
2022-09-04T15:12:27.964Z,27.30
2022-09-04T15:15:04.361Z,27.20
2022-09-04T15:17:32.627Z,27.20
2022-09-04T15:20:02.726Z,27.30
2022-09-04T15:22:36.697Z,27.40
2022-09-04T15:25:08.982Z,27.50
2022-09-04T15:27:43.914Z,27.40
2022-09-04T15:30:19.164Z,27.30
2022-09-04T15:32:47.447Z,27.20
2022-09-04T15:35:17.837Z,27.30
2022-09-04T15:37:48.434Z,27.30
2022-09-04T15:40:28.907Z,27.30
2022-09-04T15:43:04.597Z,27.30
2022-09-04T15:45:36.281Z,27.30
2022-09-04T15:48:18.352Z,27.10
2022-09-04T15:50:57.488Z,27.00
2022-09-04T15:53:27.538Z,27.00
2022-09-04T15:56:10.314Z,27.00
2022-09-04T15:58:47.090Z,27.00
2022-09-04T16:01:17.361Z,27.00
2022-09-04T16:03:54.981Z,27.00
2022-09-04T16:06:26.125Z,26.90
2022-09-04T16:08:58.758Z,26.90
2022-09-04T16:11:32.420Z,26.90
2022-09-04T16:14:01.249Z,27.00
2022-09-04T16:16:31.863Z,27.20
2022-09-04T16:19:07.616Z,27.40
2022-09-04T16:21:42.880Z,27.60
2022-09-04T16:24:15.190Z,27.70
2022-09-04T16:26:47.479Z,27.80
2022-09-04T16:29:26.762Z,27.80
2022-09-04T16:31:55.791Z,27.80
2022-09-04T16:34:25.454Z,27.80
2022-09-04T16:37:01.977Z,27.80
2022-09-04T16:39:32.848Z,27.70
2022-09-04T16:42:13.255Z,27.50
2022-09-04T16:44:44.337Z,27.40
2022-09-04T16:47:17.070Z,27.30
2022-09-04T16:49:48.282Z,27.30
2022-09-04T16:52:31.960Z,27.20
2022-09-04T16:55:10.434Z,27.10
2022-09-04T16:57:43.286Z,27.00
2022-09-04T17:00:13.646Z,26.90
2022-09-04T17:02:50.797Z,26.80
2022-09-04T17:05:28.446Z,26.80
2022-09-04T17:08:14.970Z,26.70
2022-09-04T17:10:46.239Z,26.70
2022-09-04T17:13:21.353Z,26.60
2022-09-04T17:16:00.835Z,26.60
2022-09-04T17:18:29.768Z,26.50
2022-09-04T17:24:56.356Z,26.50
2022-09-04T17:28:57.473Z,26.40
2022-09-04T17:29:16.881Z,26.40
2022-09-04T17:29:40.543Z,26.50
2022-09-04T17:32:42.978Z,26.50
2022-09-04T17:40:43.589Z,26.40
2022-09-04T17:40:44.299Z,26.50
2022-09-04T17:41:36.214Z,26.30
2022-09-04T17:44:02.215Z,26.30
2022-09-04T17:46:36.977Z,26.20
2022-09-04T17:49:18.367Z,26.20
2022-09-04T17:51:50.134Z,26.10
2022-09-04T17:54:24.041Z,26.10
2022-09-04T17:56:57.282Z,26.00
2022-09-04T17:59:28.399Z,26.00
2022-09-04T18:02:01.220Z,26.00
2022-09-04T18:04:34.061Z,26.00
2022-09-04T18:07:33.520Z,25.90
2022-09-04T18:10:01.233Z,25.90
2022-09-04T18:12:34.452Z,25.90
2022-09-04T18:15:32.830Z,25.90
2022-09-04T18:18:00.187Z,25.90
2022-09-04T18:20:31.262Z,25.80
2022-09-04T18:23:20.759Z,25.80
2022-09-04T18:25:53.922Z,25.80
2022-09-04T18:28:25.989Z,25.80
2022-09-04T18:37:06.584Z,25.70
2022-09-04T18:37:18.211Z,25.70
2022-09-04T18:37:23.853Z,25.70
2022-09-04T18:39:49.583Z,25.60
2022-09-04T18:46:41.337Z,25.60
2022-09-04T18:50:51.122Z,25.50
2022-09-04T18:50:51.994Z,25.50
2022-09-04T18:53:51.942Z,25.40
2022-09-04T18:56:22.922Z,25.40
2022-09-04T18:58:57.140Z,25.30
2022-09-04T19:01:27.773Z,25.40
2022-09-04T19:03:57.241Z,25.30
2022-09-04T19:06:34.625Z,25.30
2022-09-04T19:09:09.767Z,25.30
2022-09-04T19:11:43.074Z,25.30
2022-09-04T19:14:15.351Z,25.20
2022-09-04T19:16:44.480Z,25.20
2022-09-04T19:19:17.587Z,25.20
2022-09-04T19:21:58.390Z,25.20
2022-09-04T19:24:34.336Z,25.30
2022-09-04T19:27:26.601Z,25.40
2022-09-04T19:30:17.612Z,25.40
2022-09-04T19:33:02.493Z,25.50
2022-09-04T19:35:36.684Z,25.50
2022-09-04T19:43:10.272Z,25.50
2022-09-04T19:46:01.039Z,25.50
2022-09-04T19:46:15.284Z,25.50
2022-09-04T19:46:49.387Z,25.50
2022-09-04T19:50:16.945Z,25.50
2022-09-04T19:53:30.629Z,25.50
2022-09-04T19:55:25.742Z,25.50
2022-09-04T19:57:54.232Z,25.50
2022-09-04T20:00:42.965Z,25.50
2022-09-04T20:03:29.295Z,25.60
2022-09-04T20:06:19.751Z,25.60
2022-09-04T20:08:51.801Z,25.50
2022-09-04T20:11:30.635Z,25.50
2022-09-04T20:14:13.739Z,25.50
2022-09-04T20:16:52.656Z,25.50
2022-09-04T20:19:27.871Z,25.50
2022-09-04T20:22:00.758Z,25.50
2022-09-04T20:24:34.015Z,25.50
2022-09-04T20:27:08.544Z,25.50
2022-09-04T20:29:38.591Z,25.50
2022-09-04T20:32:10.048Z,25.50
2022-09-04T20:34:43.055Z,25.50
2022-09-04T20:37:40.112Z,25.50
2022-09-04T20:40:19.201Z,25.50
2022-09-04T20:42:56.773Z,25.50
2022-09-04T20:49:27.251Z,25.50
2022-09-04T20:52:42.204Z,25.50
2022-09-04T20:52:53.856Z,25.50
2022-09-04T20:54:11.819Z,25.50
2022-09-04T20:59:48.401Z,25.50
2022-09-04T21:03:10.665Z,25.50
2022-09-04T21:03:17.247Z,25.50
2022-09-04T21:05:50.709Z,25.50
2022-09-04T21:08:30.844Z,25.50
2022-09-04T21:11:00.818Z,25.50
2022-09-04T21:13:32.949Z,25.50
2022-09-04T21:16:09.259Z,25.40
2022-09-04T21:19:28.655Z,25.40
2022-09-04T21:22:28.996Z,25.30
2022-09-04T21:25:18.562Z,25.30
2022-09-04T21:28:09.913Z,25.20
2022-09-04T21:30:49.345Z,25.20
2022-09-04T21:33:33.345Z,25.20
2022-09-04T21:36:26.298Z,25.20
2022-09-04T21:39:24.086Z,25.10
2022-09-04T21:42:00.025Z,25.10
2022-09-04T21:44:43.814Z,25.00
2022-09-04T21:47:26.922Z,25.00
2022-09-04T21:50:30.246Z,25.10
2022-09-04T21:53:19.822Z,25.10
2022-09-04T22:02:32.339Z,25.10
2022-09-04T22:02:36.660Z,25.10
2022-09-04T22:02:44.443Z,25.10
2022-09-04T22:04:47.663Z,25.10
2022-09-04T22:13:08.303Z,25.10
2022-09-04T22:13:31.927Z,25.10
2022-09-04T22:13:47.870Z,25.00
2022-09-04T22:16:23.836Z,25.00
2022-09-04T22:19:16.435Z,25.00
2022-09-04T22:22:03.254Z,25.00
2022-09-04T22:24:58.782Z,25.00
2022-09-04T22:28:07.742Z,25.00
2022-09-04T22:30:43.655Z,25.00
2022-09-04T22:34:15.560Z,25.00
2022-09-04T22:37:09.039Z,25.00
2022-09-04T22:39:57.489Z,25.00
2022-09-04T22:42:45.062Z,25.00
2022-09-04T22:45:38.080Z,25.00
2022-09-04T22:48:17.629Z,25.00
2022-09-04T22:50:52.882Z,25.00
2022-09-04T22:53:52.356Z,25.00
2022-09-04T22:56:26.736Z,24.90
2022-09-04T22:59:26.276Z,24.90
2022-09-04T23:02:48.125Z,24.90
2022-09-04T23:05:40.740Z,24.90
2022-09-04T23:13:46.135Z,24.90
2022-09-04T23:14:00.696Z,24.90
2022-09-04T23:14:18.361Z,24.90
2022-09-04T23:17:06.239Z,24.90
2022-09-04T23:25:49.030Z,24.90
2022-09-04T23:26:43.056Z,24.90
2022-09-04T23:26:59.082Z,24.90
2022-09-04T23:29:41.082Z,24.90
2022-09-04T23:32:43.373Z,24.90
2022-09-04T23:35:16.911Z,24.90
2022-09-04T23:38:00.995Z,24.90
2022-09-04T23:40:36.499Z,24.90
2022-09-04T23:43:25.275Z,24.90
2022-09-04T23:46:08.836Z,24.90
2022-09-04T23:49:19.593Z,24.90
2022-09-04T23:51:50.091Z,24.90
2022-09-04T23:54:39.481Z,24.90
2022-09-04T23:57:25.979Z,24.80
2022-09-04T23:59:56.922Z,24.80
